sensor_id;sensor_type;location;lat;lon;timestamp;P1;durP1;ratioP1;P2;durP2;ratioP2
9214;SDS011;4642;51.364;6.788;2023-03-21T00:00:46;11.73;;;3.83;;
9214;SDS011;4642;51.364;6.788;2023-03-21T00:03:12;6.30;;;3.60;;
9214;SDS011;4642;51.364;6.788;2023-03-21T00:05:41;15.03;;;4.20;;
9214;SDS011;4642;51.364;6.788;2023-03-21T00:08:13;22.93;;;3.87;;
9214;SDS011;4642;51.364;6.788;2023-03-21T00:10:39;8.47;;;3.53;;
9214;SDS011;4642;51.364;6.788;2023-03-21T00:13:05;7.77;;;3.97;;
9214;SDS011;4642;51.364;6.788;2023-03-21T00:15:31;9.30;;;3.63;;
9214;SDS011;4642;51.364;6.788;2023-03-21T00:17:57;7.00;;;3.37;;
9214;SDS011;4642;51.364;6.788;2023-03-21T00:20:27;11.23;;;3.83;;
9214;SDS011;4642;51.364;6.788;2023-03-21T00:22:58;10.33;;;3.83;;
9214;SDS011;4642;51.364;6.788;2023-03-21T00:25:24;10.03;;;3.60;;
9214;SDS011;4642;51.364;6.788;2023-03-21T00:27:50;9.97;;;3.67;;
9214;SDS011;4642;51.364;6.788;2023-03-21T00:30:15;7.43;;;3.50;;
9214;SDS011;4642;51.364;6.788;2023-03-21T00:32:41;11.50;;;4.20;;
9214;SDS011;4642;51.364;6.788;2023-03-21T00:35:07;9.43;;;3.73;;
9214;SDS011;4642;51.364;6.788;2023-03-21T00:37:32;13.27;;;4.10;;
9214;SDS011;4642;51.364;6.788;2023-03-21T00:39:58;8.80;;;3.83;;
9214;SDS011;4642;51.364;6.788;2023-03-21T00:42:23;9.13;;;3.73;;
9214;SDS011;4642;51.364;6.788;2023-03-21T00:44:50;10.30;;;3.83;;
9214;SDS011;4642;51.364;6.788;2023-03-21T00:47:15;12.23;;;3.97;;
9214;SDS011;4642;51.364;6.788;2023-03-21T00:49:41;9.37;;;3.93;;
9214;SDS011;4642;51.364;6.788;2023-03-21T00:52:07;11.97;;;4.27;;
9214;SDS011;4642;51.364;6.788;2023-03-21T00:54:34;9.13;;;3.67;;
9214;SDS011;4642;51.364;6.788;2023-03-21T00:57:01;11.17;;;3.93;;
9214;SDS011;4642;51.364;6.788;2023-03-21T00:59:28;7.23;;;3.87;;
9214;SDS011;4642;51.364;6.788;2023-03-21T01:01:54;8.60;;;4.10;;
9214;SDS011;4642;51.364;6.788;2023-03-21T01:04:20;9.00;;;3.87;;
9214;SDS011;4642;51.364;6.788;2023-03-21T01:06:50;13.40;;;4.40;;
9214;SDS011;4642;51.364;6.788;2023-03-21T01:09:19;9.53;;;4.07;;
9214;SDS011;4642;51.364;6.788;2023-03-21T01:11:47;7.50;;;4.00;;
9214;SDS011;4642;51.364;6.788;2023-03-21T01:14:14;9.93;;;3.53;;
9214;SDS011;4642;51.364;6.788;2023-03-21T01:16:41;10.40;;;4.03;;
9214;SDS011;4642;51.364;6.788;2023-03-21T01:19:07;12.03;;;4.03;;
9214;SDS011;4642;51.364;6.788;2023-03-21T01:21:35;8.93;;;4.67;;
9214;SDS011;4642;51.364;6.788;2023-03-21T01:24:01;9.53;;;4.17;;
9214;SDS011;4642;51.364;6.788;2023-03-21T01:26:27;13.57;;;4.70;;
9214;SDS011;4642;51.364;6.788;2023-03-21T01:28:53;12.77;;;4.57;;
9214;SDS011;4642;51.364;6.788;2023-03-21T01:31:18;13.90;;;4.10;;
9214;SDS011;4642;51.364;6.788;2023-03-21T01:33:44;12.03;;;4.20;;
9214;SDS011;4642;51.364;6.788;2023-03-21T01:36:12;13.10;;;4.60;;
9214;SDS011;4642;51.364;6.788;2023-03-21T01:38:43;13.97;;;4.60;;
9214;SDS011;4642;51.364;6.788;2023-03-21T01:41:19;12.00;;;4.63;;
9214;SDS011;4642;51.364;6.788;2023-03-21T01:43:55;12.80;;;4.57;;
9214;SDS011;4642;51.364;6.788;2023-03-21T01:46:33;10.10;;;4.10;;
9214;SDS011;4642;51.364;6.788;2023-03-21T01:49:20;14.83;;;4.40;;
9214;SDS011;4642;51.364;6.788;2023-03-21T01:51:52;13.27;;;5.10;;
9214;SDS011;4642;51.364;6.788;2023-03-21T01:54:23;13.40;;;4.60;;
9214;SDS011;4642;51.364;6.788;2023-03-21T01:56:53;13.27;;;4.80;;
9214;SDS011;4642;51.364;6.788;2023-03-21T01:59:25;8.50;;;5.00;;
9214;SDS011;4642;51.364;6.788;2023-03-21T02:02:02;14.00;;;4.93;;
9214;SDS011;4642;51.364;6.788;2023-03-21T02:04:31;14.10;;;5.70;;
9214;SDS011;4642;51.364;6.788;2023-03-21T02:07:01;11.27;;;4.73;;
9214;SDS011;4642;51.364;6.788;2023-03-21T02:09:32;13.57;;;5.87;;
9214;SDS011;4642;51.364;6.788;2023-03-21T02:12:00;12.00;;;5.27;;
9214;SDS011;4642;51.364;6.788;2023-03-21T02:14:26;14.77;;;5.57;;
9214;SDS011;4642;51.364;6.788;2023-03-21T02:17:09;12.23;;;5.30;;
9214;SDS011;4642;51.364;6.788;2023-03-21T02:30:53;12.97;;;4.90;;
9214;SDS011;4642;51.364;6.788;2023-03-21T02:39:20;13.23;;;5.77;;
9214;SDS011;4642;51.364;6.788;2023-03-21T02:45:30;13.07;;;5.43;;
9214;SDS011;4642;51.364;6.788;2023-03-21T02:48:02;17.03;;;5.97;;
9214;SDS011;4642;51.364;6.788;2023-03-21T02:50:34;10.77;;;4.93;;
9214;SDS011;4642;51.364;6.788;2023-03-21T02:53:05;12.77;;;6.03;;
9214;SDS011;4642;51.364;6.788;2023-03-21T02:55:32;13.63;;;5.07;;
9214;SDS011;4642;51.364;6.788;2023-03-21T02:57:59;15.20;;;5.50;;
9214;SDS011;4642;51.364;6.788;2023-03-21T03:00:28;10.57;;;5.43;;
9214;SDS011;4642;51.364;6.788;2023-03-21T03:02:56;15.27;;;6.07;;
9214;SDS011;4642;51.364;6.788;2023-03-21T03:05:23;13.00;;;5.53;;
9214;SDS011;4642;51.364;6.788;2023-03-21T03:16:33;14.13;;;5.57;;
9214;SDS011;4642;51.364;6.788;2023-03-21T03:19:27;12.63;;;5.93;;
9214;SDS011;4642;51.364;6.788;2023-03-21T03:21:57;17.43;;;5.67;;
9214;SDS011;4642;51.364;6.788;2023-03-21T03:24:29;12.20;;;5.37;;
9214;SDS011;4642;51.364;6.788;2023-03-21T03:27:03;9.73;;;5.60;;
9214;SDS011;4642;51.364;6.788;2023-03-21T03:29:41;11.67;;;5.47;;
9214;SDS011;4642;51.364;6.788;2023-03-21T03:32:11;13.20;;;5.67;;
9214;SDS011;4642;51.364;6.788;2023-03-21T03:34:42;9.57;;;5.43;;
9214;SDS011;4642;51.364;6.788;2023-03-21T03:37:15;11.37;;;5.90;;
9214;SDS011;4642;51.364;6.788;2023-03-21T03:39:53;14.17;;;5.90;;
9214;SDS011;4642;51.364;6.788;2023-03-21T03:42:23;12.73;;;5.70;;
9214;SDS011;4642;51.364;6.788;2023-03-21T03:44:54;13.87;;;5.80;;
9214;SDS011;4642;51.364;6.788;2023-03-21T03:47:21;11.60;;;5.63;;
9214;SDS011;4642;51.364;6.788;2023-03-21T03:52:51;14.83;;;5.63;;
9214;SDS011;4642;51.364;6.788;2023-03-21T03:55:20;12.17;;;4.93;;
9214;SDS011;4642;51.364;6.788;2023-03-21T03:57:50;13.37;;;5.50;;
9214;SDS011;4642;51.364;6.788;2023-03-21T04:00:17;15.13;;;5.37;;
9214;SDS011;4642;51.364;6.788;2023-03-21T04:02:43;13.90;;;5.83;;
9214;SDS011;4642;51.364;6.788;2023-03-21T04:05:09;11.10;;;5.33;;
9214;SDS011;4642;51.364;6.788;2023-03-21T04:07:36;14.27;;;5.30;;
9214;SDS011;4642;51.364;6.788;2023-03-21T04:10:02;12.17;;;5.50;;
9214;SDS011;4642;51.364;6.788;2023-03-21T04:12:29;12.97;;;5.50;;
9214;SDS011;4642;51.364;6.788;2023-03-21T04:14:54;12.60;;;5.23;;
9214;SDS011;4642;51.364;6.788;2023-03-21T04:17:20;11.80;;;5.27;;
9214;SDS011;4642;51.364;6.788;2023-03-21T04:19:46;13.07;;;5.43;;
9214;SDS011;4642;51.364;6.788;2023-03-21T04:22:11;13.93;;;5.50;;
9214;SDS011;4642;51.364;6.788;2023-03-21T04:24:38;14.17;;;5.67;;
9214;SDS011;4642;51.364;6.788;2023-03-21T04:27:04;10.93;;;5.80;;
9214;SDS011;4642;51.364;6.788;2023-03-21T04:29:30;15.93;;;6.10;;
9214;SDS011;4642;51.364;6.788;2023-03-21T04:31:56;13.77;;;5.87;;
9214;SDS011;4642;51.364;6.788;2023-03-21T04:34:22;11.73;;;5.20;;
9214;SDS011;4642;51.364;6.788;2023-03-21T04:36:52;13.57;;;4.93;;
9214;SDS011;4642;51.364;6.788;2023-03-21T04:39:18;12.67;;;5.77;;
9214;SDS011;4642;51.364;6.788;2023-03-21T04:41:44;11.13;;;4.97;;
9214;SDS011;4642;51.364;6.788;2023-03-21T04:44:11;8.30;;;4.77;;
9214;SDS011;4642;51.364;6.788;2023-03-21T04:46:38;11.50;;;5.80;;
9214;SDS011;4642;51.364;6.788;2023-03-21T04:49:04;13.53;;;5.33;;
9214;SDS011;4642;51.364;6.788;2023-03-21T04:51:30;13.03;;;5.37;;
9214;SDS011;4642;51.364;6.788;2023-03-21T04:53:56;11.90;;;5.60;;
9214;SDS011;4642;51.364;6.788;2023-03-21T04:56:26;8.33;;;4.90;;
9214;SDS011;4642;51.364;6.788;2023-03-21T04:59:00;13.43;;;5.20;;
9214;SDS011;4642;51.364;6.788;2023-03-21T05:01:31;14.70;;;5.17;;
9214;SDS011;4642;51.364;6.788;2023-03-21T05:03:57;9.53;;;5.30;;
9214;SDS011;4642;51.364;6.788;2023-03-21T05:06:23;10.60;;;4.83;;
9214;SDS011;4642;51.364;6.788;2023-03-21T05:08:50;11.60;;;4.63;;
9214;SDS011;4642;51.364;6.788;2023-03-21T05:11:16;13.10;;;4.90;;
9214;SDS011;4642;51.364;6.788;2023-03-21T05:13:41;10.33;;;4.73;;
9214;SDS011;4642;51.364;6.788;2023-03-21T05:16:07;13.00;;;5.00;;
9214;SDS011;4642;51.364;6.788;2023-03-21T05:18:33;9.87;;;4.93;;
9214;SDS011;4642;51.364;6.788;2023-03-21T05:21:02;14.07;;;5.00;;
9214;SDS011;4642;51.364;6.788;2023-03-21T05:23:31;8.00;;;4.90;;
9214;SDS011;4642;51.364;6.788;2023-03-21T05:26:02;10.20;;;4.77;;
9214;SDS011;4642;51.364;6.788;2023-03-21T05:28:31;9.77;;;4.70;;
9214;SDS011;4642;51.364;6.788;2023-03-21T05:31:00;12.87;;;5.23;;
9214;SDS011;4642;51.364;6.788;2023-03-21T05:33:27;10.30;;;5.13;;
9214;SDS011;4642;51.364;6.788;2023-03-21T05:35:53;13.00;;;5.60;;
9214;SDS011;4642;51.364;6.788;2023-03-21T05:38:19;8.37;;;5.07;;
9214;SDS011;4642;51.364;6.788;2023-03-21T05:40:45;14.07;;;6.17;;
9214;SDS011;4642;51.364;6.788;2023-03-21T05:43:12;15.30;;;5.00;;
9214;SDS011;4642;51.364;6.788;2023-03-21T05:45:37;11.07;;;5.10;;
9214;SDS011;4642;51.364;6.788;2023-03-21T05:48:03;11.40;;;5.13;;
9214;SDS011;4642;51.364;6.788;2023-03-21T05:50:28;10.83;;;5.43;;
9214;SDS011;4642;51.364;6.788;2023-03-21T05:52:54;13.93;;;5.70;;
9214;SDS011;4642;51.364;6.788;2023-03-21T05:55:19;12.30;;;4.73;;
9214;SDS011;4642;51.364;6.788;2023-03-21T05:57:45;16.40;;;5.67;;
9214;SDS011;4642;51.364;6.788;2023-03-21T06:00:11;17.60;;;5.23;;
9214;SDS011;4642;51.364;6.788;2023-03-21T06:02:37;16.20;;;5.83;;
9214;SDS011;4642;51.364;6.788;2023-03-21T06:05:04;12.07;;;5.03;;
9214;SDS011;4642;51.364;6.788;2023-03-21T06:07:30;9.27;;;5.00;;
9214;SDS011;4642;51.364;6.788;2023-03-21T06:09:56;7.57;;;4.40;;
9214;SDS011;4642;51.364;6.788;2023-03-21T06:12:22;10.87;;;5.43;;
9214;SDS011;4642;51.364;6.788;2023-03-21T06:14:47;10.13;;;5.07;;
9214;SDS011;4642;51.364;6.788;2023-03-21T06:17:13;12.03;;;5.40;;
9214;SDS011;4642;51.364;6.788;2023-03-21T06:19:39;13.13;;;5.93;;
9214;SDS011;4642;51.364;6.788;2023-03-21T06:22:05;10.33;;;5.23;;
9214;SDS011;4642;51.364;6.788;2023-03-21T06:24:30;10.00;;;5.23;;
9214;SDS011;4642;51.364;6.788;2023-03-21T06:26:56;15.97;;;5.40;;
9214;SDS011;4642;51.364;6.788;2023-03-21T06:29:22;8.90;;;4.73;;
9214;SDS011;4642;51.364;6.788;2023-03-21T06:31:47;11.67;;;5.10;;
9214;SDS011;4642;51.364;6.788;2023-03-21T06:34:13;10.13;;;5.27;;
9214;SDS011;4642;51.364;6.788;2023-03-21T06:36:39;13.43;;;5.13;;
9214;SDS011;4642;51.364;6.788;2023-03-21T06:39:05;13.87;;;5.97;;
9214;SDS011;4642;51.364;6.788;2023-03-21T06:41:32;11.87;;;5.67;;
9214;SDS011;4642;51.364;6.788;2023-03-21T06:43:57;11.30;;;5.23;;
9214;SDS011;4642;51.364;6.788;2023-03-21T06:46:23;11.30;;;5.37;;
9214;SDS011;4642;51.364;6.788;2023-03-21T06:48:49;16.07;;;5.60;;
9214;SDS011;4642;51.364;6.788;2023-03-21T06:51:15;11.53;;;5.63;;
9214;SDS011;4642;51.364;6.788;2023-03-21T06:53:40;13.03;;;5.93;;
9214;SDS011;4642;51.364;6.788;2023-03-21T06:56:10;19.90;;;5.50;;
9214;SDS011;4642;51.364;6.788;2023-03-21T06:58:37;17.60;;;5.93;;
9214;SDS011;4642;51.364;6.788;2023-03-21T07:01:03;9.97;;;5.40;;
9214;SDS011;4642;51.364;6.788;2023-03-21T07:03:30;12.67;;;5.37;;
9214;SDS011;4642;51.364;6.788;2023-03-21T07:05:56;15.13;;;5.37;;
9214;SDS011;4642;51.364;6.788;2023-03-21T07:08:22;12.50;;;5.87;;
9214;SDS011;4642;51.364;6.788;2023-03-21T07:10:48;12.73;;;6.27;;
9214;SDS011;4642;51.364;6.788;2023-03-21T07:13:14;13.27;;;5.10;;
9214;SDS011;4642;51.364;6.788;2023-03-21T07:15:40;15.90;;;5.80;;
9214;SDS011;4642;51.364;6.788;2023-03-21T07:18:07;14.47;;;6.20;;
9214;SDS011;4642;51.364;6.788;2023-03-21T07:20:33;11.73;;;5.83;;
9214;SDS011;4642;51.364;6.788;2023-03-21T07:23:02;13.53;;;6.30;;
9214;SDS011;4642;51.364;6.788;2023-03-21T07:25:28;13.33;;;5.63;;
9214;SDS011;4642;51.364;6.788;2023-03-21T07:27:54;13.30;;;5.53;;
9214;SDS011;4642;51.364;6.788;2023-03-21T07:30:20;14.87;;;5.47;;
9214;SDS011;4642;51.364;6.788;2023-03-21T07:32:46;12.57;;;5.37;;
9214;SDS011;4642;51.364;6.788;2023-03-21T07:35:12;12.90;;;5.47;;
9214;SDS011;4642;51.364;6.788;2023-03-21T07:37:40;12.80;;;5.30;;
9214;SDS011;4642;51.364;6.788;2023-03-21T07:40:06;17.37;;;5.40;;
9214;SDS011;4642;51.364;6.788;2023-03-21T07:42:37;14.70;;;5.17;;
9214;SDS011;4642;51.364;6.788;2023-03-21T07:45:03;13.40;;;4.77;;
9214;SDS011;4642;51.364;6.788;2023-03-21T07:47:30;10.33;;;5.07;;
9214;SDS011;4642;51.364;6.788;2023-03-21T07:49:56;8.67;;;4.13;;
9214;SDS011;4642;51.364;6.788;2023-03-21T07:52:21;7.83;;;4.40;;
9214;SDS011;4642;51.364;6.788;2023-03-21T07:54:47;12.00;;;4.47;;
9214;SDS011;4642;51.364;6.788;2023-03-21T07:57:12;9.83;;;4.60;;
9214;SDS011;4642;51.364;6.788;2023-03-21T07:59:38;12.50;;;4.53;;
9214;SDS011;4642;51.364;6.788;2023-03-21T08:02:04;8.80;;;3.83;;
9214;SDS011;4642;51.364;6.788;2023-03-21T08:04:29;11.90;;;4.47;;
9214;SDS011;4642;51.364;6.788;2023-03-21T08:06:56;8.20;;;4.17;;
9214;SDS011;4642;51.364;6.788;2023-03-21T08:09:21;12.17;;;4.57;;
9214;SDS011;4642;51.364;6.788;2023-03-21T08:11:47;11.23;;;4.83;;
9214;SDS011;4642;51.364;6.788;2023-03-21T08:14:12;11.60;;;4.90;;
9214;SDS011;4642;51.364;6.788;2023-03-21T08:16:38;14.73;;;5.30;;
9214;SDS011;4642;51.364;6.788;2023-03-21T08:19:03;9.10;;;5.10;;
9214;SDS011;4642;51.364;6.788;2023-03-21T08:21:29;11.70;;;5.03;;
9214;SDS011;4642;51.364;6.788;2023-03-21T08:23:55;11.17;;;4.80;;
9214;SDS011;4642;51.364;6.788;2023-03-21T08:26:20;8.63;;;4.40;;
9214;SDS011;4642;51.364;6.788;2023-03-21T08:28:49;12.90;;;4.57;;
9214;SDS011;4642;51.364;6.788;2023-03-21T08:31:14;10.93;;;4.80;;
9214;SDS011;4642;51.364;6.788;2023-03-21T08:33:42;9.10;;;4.57;;
9214;SDS011;4642;51.364;6.788;2023-03-21T08:36:08;13.80;;;5.70;;
9214;SDS011;4642;51.364;6.788;2023-03-21T08:38:34;11.83;;;5.47;;
9214;SDS011;4642;51.364;6.788;2023-03-21T08:41:00;9.83;;;5.37;;
9214;SDS011;4642;51.364;6.788;2023-03-21T08:43:26;10.30;;;5.30;;
9214;SDS011;4642;51.364;6.788;2023-03-21T08:45:52;10.83;;;5.27;;
9214;SDS011;4642;51.364;6.788;2023-03-21T08:48:19;11.47;;;5.60;;
9214;SDS011;4642;51.364;6.788;2023-03-21T08:50:45;9.50;;;5.47;;
9214;SDS011;4642;51.364;6.788;2023-03-21T08:53:10;11.90;;;5.87;;
9214;SDS011;4642;51.364;6.788;2023-03-21T08:55:36;11.50;;;5.57;;
9214;SDS011;4642;51.364;6.788;2023-03-21T08:58:02;12.00;;;5.97;;
9214;SDS011;4642;51.364;6.788;2023-03-21T09:00:28;10.00;;;5.60;;
9214;SDS011;4642;51.364;6.788;2023-03-21T09:02:54;11.03;;;5.67;;
9214;SDS011;4642;51.364;6.788;2023-03-21T09:05:21;9.77;;;5.83;;
9214;SDS011;4642;51.364;6.788;2023-03-21T09:07:47;10.73;;;5.90;;
9214;SDS011;4642;51.364;6.788;2023-03-21T09:10:17;8.97;;;5.70;;
9214;SDS011;4642;51.364;6.788;2023-03-21T09:12:46;9.00;;;4.90;;
9214;SDS011;4642;51.364;6.788;2023-03-21T09:15:12;13.53;;;5.63;;
9214;SDS011;4642;51.364;6.788;2023-03-21T09:17:38;17.67;;;5.73;;
9214;SDS011;4642;51.364;6.788;2023-03-21T09:20:07;10.30;;;5.63;;
9214;SDS011;4642;51.364;6.788;2023-03-21T09:22:42;7.37;;;5.17;;
9214;SDS011;4642;51.364;6.788;2023-03-21T09:25:12;11.13;;;6.40;;
9214;SDS011;4642;51.364;6.788;2023-03-21T09:27:39;10.30;;;5.30;;
9214;SDS011;4642;51.364;6.788;2023-03-21T09:30:05;12.57;;;5.67;;
9214;SDS011;4642;51.364;6.788;2023-03-21T09:32:31;13.47;;;6.30;;
9214;SDS011;4642;51.364;6.788;2023-03-21T09:34:58;12.93;;;7.20;;
9214;SDS011;4642;51.364;6.788;2023-03-21T09:37:24;14.67;;;7.03;;
9214;SDS011;4642;51.364;6.788;2023-03-21T09:39:49;13.80;;;7.10;;
9214;SDS011;4642;51.364;6.788;2023-03-21T09:44:52;15.47;;;7.10;;
9214;SDS011;4642;51.364;6.788;2023-03-21T09:47:41;14.07;;;7.13;;
9214;SDS011;4642;51.364;6.788;2023-03-21T09:55:40;11.70;;;6.57;;
9214;SDS011;4642;51.364;6.788;2023-03-21T10:01:01;12.43;;;6.10;;
9214;SDS011;4642;51.364;6.788;2023-03-21T10:03:46;13.87;;;6.63;;
9214;SDS011;4642;51.364;6.788;2023-03-21T10:06:14;11.80;;;6.00;;
9214;SDS011;4642;51.364;6.788;2023-03-21T10:08:40;15.67;;;6.90;;
9214;SDS011;4642;51.364;6.788;2023-03-21T10:11:12;17.57;;;6.53;;
9214;SDS011;4642;51.364;6.788;2023-03-21T10:13:45;16.30;;;6.73;;
9214;SDS011;4642;51.364;6.788;2023-03-21T10:19:27;9.63;;;5.60;;
9214;SDS011;4642;51.364;6.788;2023-03-21T10:21:53;14.17;;;6.27;;
9214;SDS011;4642;51.364;6.788;2023-03-21T10:24:20;9.80;;;5.30;;
9214;SDS011;4642;51.364;6.788;2023-03-21T10:26:48;12.87;;;5.40;;
9214;SDS011;4642;51.364;6.788;2023-03-21T10:29:15;10.57;;;5.30;;
9214;SDS011;4642;51.364;6.788;2023-03-21T10:31:43;10.47;;;5.40;;
9214;SDS011;4642;51.364;6.788;2023-03-21T10:34:34;10.70;;;5.57;;
9214;SDS011;4642;51.364;6.788;2023-03-21T10:37:00;12.33;;;5.33;;
9214;SDS011;4642;51.364;6.788;2023-03-21T10:39:37;17.03;;;6.77;;
9214;SDS011;4642;51.364;6.788;2023-03-21T10:42:07;11.40;;;6.43;;
9214;SDS011;4642;51.364;6.788;2023-03-21T10:44:50;10.77;;;6.47;;
9214;SDS011;4642;51.364;6.788;2023-03-21T10:47:21;13.00;;;6.33;;
9214;SDS011;4642;51.364;6.788;2023-03-21T10:49:51;15.37;;;6.63;;
9214;SDS011;4642;51.364;6.788;2023-03-21T10:52:17;16.93;;;6.60;;
9214;SDS011;4642;51.364;6.788;2023-03-21T10:54:46;16.57;;;6.33;;
9214;SDS011;4642;51.364;6.788;2023-03-21T10:57:17;11.53;;;6.40;;
9214;SDS011;4642;51.364;6.788;2023-03-21T10:59:48;10.57;;;6.33;;
9214;SDS011;4642;51.364;6.788;2023-03-21T11:02:31;12.93;;;6.70;;
9214;SDS011;4642;51.364;6.788;2023-03-21T11:05:05;11.87;;;6.00;;
9214;SDS011;4642;51.364;6.788;2023-03-21T11:07:43;13.57;;;5.67;;
9214;SDS011;4642;51.364;6.788;2023-03-21T11:10:13;12.63;;;6.10;;
9214;SDS011;4642;51.364;6.788;2023-03-21T11:12:41;13.20;;;5.87;;
9214;SDS011;4642;51.364;6.788;2023-03-21T11:17:52;9.23;;;5.40;;
9214;SDS011;4642;51.364;6.788;2023-03-21T11:20:19;11.40;;;5.30;;
9214;SDS011;4642;51.364;6.788;2023-03-21T11:22:45;12.67;;;5.57;;
9214;SDS011;4642;51.364;6.788;2023-03-21T11:25:19;9.83;;;5.43;;
9214;SDS011;4642;51.364;6.788;2023-03-21T11:27:50;8.13;;;5.30;;
9214;SDS011;4642;51.364;6.788;2023-03-21T11:30:21;8.53;;;4.70;;
9214;SDS011;4642;51.364;6.788;2023-03-21T11:32:55;9.00;;;5.20;;
9214;SDS011;4642;51.364;6.788;2023-03-21T11:35:27;9.93;;;4.63;;
9214;SDS011;4642;51.364;6.788;2023-03-21T11:37:58;6.47;;;4.30;;
9214;SDS011;4642;51.364;6.788;2023-03-21T11:42:52;10.10;;;3.97;;
9214;SDS011;4642;51.364;6.788;2023-03-21T11:45:29;10.00;;;4.53;;
9214;SDS011;4642;51.364;6.788;2023-03-21T11:47:57;8.10;;;3.90;;
9214;SDS011;4642;51.364;6.788;2023-03-21T11:58:31;7.13;;;3.60;;
9214;SDS011;4642;51.364;6.788;2023-03-21T12:01:17;10.90;;;4.03;;
9214;SDS011;4642;51.364;6.788;2023-03-21T12:06:47;9.63;;;3.70;;
9214;SDS011;4642;51.364;6.788;2023-03-21T12:09:33;11.23;;;3.43;;
9214;SDS011;4642;51.364;6.788;2023-03-21T12:12:22;5.57;;;3.17;;
9214;SDS011;4642;51.364;6.788;2023-03-21T12:17:53;7.27;;;3.60;;
9214;SDS011;4642;51.364;6.788;2023-03-21T12:20:32;9.03;;;3.40;;
9214;SDS011;4642;51.364;6.788;2023-03-21T12:23:32;5.40;;;3.07;;
9214;SDS011;4642;51.364;6.788;2023-03-21T12:28:57;11.03;;;3.53;;
9214;SDS011;4642;51.364;6.788;2023-03-21T12:31:32;7.43;;;3.83;;
9214;SDS011;4642;51.364;6.788;2023-03-21T12:39:34;9.10;;;3.80;;
9214;SDS011;4642;51.364;6.788;2023-03-21T12:42:05;12.97;;;3.70;;
9214;SDS011;4642;51.364;6.788;2023-03-21T12:44:38;6.10;;;3.63;;
9214;SDS011;4642;51.364;6.788;2023-03-21T12:47:09;4.07;;;3.60;;
9214;SDS011;4642;51.364;6.788;2023-03-21T12:49:45;11.70;;;3.83;;
9214;SDS011;4642;51.364;6.788;2023-03-21T12:52:21;14.67;;;4.77;;
9214;SDS011;4642;51.364;6.788;2023-03-21T12:54:59;6.27;;;3.70;;
9214;SDS011;4642;51.364;6.788;2023-03-21T12:57:35;9.13;;;3.63;;
9214;SDS011;4642;51.364;6.788;2023-03-21T13:00:09;9.33;;;3.70;;
9214;SDS011;4642;51.364;6.788;2023-03-21T13:03:03;9.20;;;3.87;;
9214;SDS011;4642;51.364;6.788;2023-03-21T13:05:52;5.87;;;3.07;;
9214;SDS011;4642;51.364;6.788;2023-03-21T13:11:06;6.23;;;3.33;;
9214;SDS011;4642;51.364;6.788;2023-03-21T13:13:46;6.90;;;3.20;;
9214;SDS011;4642;51.364;6.788;2023-03-21T13:22:10;6.60;;;3.23;;
9214;SDS011;4642;51.364;6.788;2023-03-21T13:24:49;5.63;;;3.33;;
9214;SDS011;4642;51.364;6.788;2023-03-21T13:27:34;6.40;;;3.30;;
9214;SDS011;4642;51.364;6.788;2023-03-21T13:32:38;9.07;;;3.57;;
9214;SDS011;4642;51.364;6.788;2023-03-21T13:35:22;9.87;;;3.53;;
9214;SDS011;4642;51.364;6.788;2023-03-21T13:37:57;7.53;;;3.00;;
9214;SDS011;4642;51.364;6.788;2023-03-21T13:40:48;9.83;;;3.60;;
9214;SDS011;4642;51.364;6.788;2023-03-21T13:48:58;6.90;;;3.33;;
9214;SDS011;4642;51.364;6.788;2023-03-21T13:57:17;5.07;;;3.30;;
9214;SDS011;4642;51.364;6.788;2023-03-21T14:00:13;4.97;;;2.80;;
9214;SDS011;4642;51.364;6.788;2023-03-21T14:05:40;5.63;;;2.87;;
9214;SDS011;4642;51.364;6.788;2023-03-21T14:08:07;6.63;;;3.30;;
9214;SDS011;4642;51.364;6.788;2023-03-21T14:10:41;6.40;;;2.80;;
9214;SDS011;4642;51.364;6.788;2023-03-21T14:13:10;8.60;;;3.20;;
9214;SDS011;4642;51.364;6.788;2023-03-21T14:15:45;4.43;;;2.90;;
9214;SDS011;4642;51.364;6.788;2023-03-21T14:18:20;6.33;;;3.43;;
9214;SDS011;4642;51.364;6.788;2023-03-21T14:20:51;5.97;;;3.10;;
9214;SDS011;4642;51.364;6.788;2023-03-21T14:23:18;5.37;;;3.07;;
9214;SDS011;4642;51.364;6.788;2023-03-21T14:25:44;5.80;;;3.27;;
9214;SDS011;4642;51.364;6.788;2023-03-21T14:28:23;5.67;;;3.23;;
9214;SDS011;4642;51.364;6.788;2023-03-21T14:30:56;7.07;;;3.40;;
9214;SDS011;4642;51.364;6.788;2023-03-21T14:36:01;6.67;;;3.00;;
9214;SDS011;4642;51.364;6.788;2023-03-21T14:38:37;4.70;;;3.13;;
9214;SDS011;4642;51.364;6.788;2023-03-21T14:41:04;7.87;;;3.43;;
9214;SDS011;4642;51.364;6.788;2023-03-21T14:43:30;6.73;;;2.80;;
9214;SDS011;4642;51.364;6.788;2023-03-21T14:45:58;7.23;;;3.80;;
9214;SDS011;4642;51.364;6.788;2023-03-21T14:48:29;6.10;;;3.47;;
9214;SDS011;4642;51.364;6.788;2023-03-21T14:51:00;7.10;;;3.10;;
9214;SDS011;4642;51.364;6.788;2023-03-21T14:53:28;5.67;;;3.03;;
9214;SDS011;4642;51.364;6.788;2023-03-21T14:55:57;5.93;;;3.00;;
9214;SDS011;4642;51.364;6.788;2023-03-21T14:58:29;5.67;;;3.07;;
9214;SDS011;4642;51.364;6.788;2023-03-21T15:00:56;5.73;;;3.10;;
9214;SDS011;4642;51.364;6.788;2023-03-21T15:03:25;3.47;;;2.80;;
9214;SDS011;4642;51.364;6.788;2023-03-21T15:05:52;5.43;;;2.63;;
9214;SDS011;4642;51.364;6.788;2023-03-21T15:08:20;3.83;;;2.60;;
9214;SDS011;4642;51.364;6.788;2023-03-21T15:13:19;5.90;;;3.23;;
9214;SDS011;4642;51.364;6.788;2023-03-21T15:15:47;5.80;;;2.97;;
9214;SDS011;4642;51.364;6.788;2023-03-21T15:18:17;7.73;;;2.97;;
9214;SDS011;4642;51.364;6.788;2023-03-21T15:20:52;6.73;;;2.80;;
9214;SDS011;4642;51.364;6.788;2023-03-21T15:23:32;5.37;;;3.13;;
9214;SDS011;4642;51.364;6.788;2023-03-21T15:26:02;5.67;;;3.10;;
9214;SDS011;4642;51.364;6.788;2023-03-21T15:28:29;5.20;;;3.20;;
9214;SDS011;4642;51.364;6.788;2023-03-21T15:30:55;6.30;;;3.23;;
9214;SDS011;4642;51.364;6.788;2023-03-21T15:33:22;8.53;;;2.90;;
9214;SDS011;4642;51.364;6.788;2023-03-21T15:35:50;5.00;;;2.90;;
9214;SDS011;4642;51.364;6.788;2023-03-21T15:38:27;8.07;;;3.00;;
9214;SDS011;4642;51.364;6.788;2023-03-21T15:43:45;6.87;;;3.20;;
9214;SDS011;4642;51.364;6.788;2023-03-21T15:46:12;5.50;;;2.83;;
9214;SDS011;4642;51.364;6.788;2023-03-21T15:51:40;5.53;;;3.13;;
9214;SDS011;4642;51.364;6.788;2023-03-21T15:54:14;6.93;;;3.10;;
9214;SDS011;4642;51.364;6.788;2023-03-21T15:56:43;4.70;;;2.70;;
9214;SDS011;4642;51.364;6.788;2023-03-21T15:59:15;3.60;;;2.53;;
9214;SDS011;4642;51.364;6.788;2023-03-21T16:01:43;6.27;;;2.73;;
9214;SDS011;4642;51.364;6.788;2023-03-21T16:04:14;5.10;;;2.40;;
9214;SDS011;4642;51.364;6.788;2023-03-21T16:06:52;5.07;;;2.60;;
9214;SDS011;4642;51.364;6.788;2023-03-21T16:09:22;4.57;;;2.87;;
9214;SDS011;4642;51.364;6.788;2023-03-21T16:11:56;7.03;;;3.30;;
9214;SDS011;4642;51.364;6.788;2023-03-21T16:14:23;6.53;;;3.00;;
9214;SDS011;4642;51.364;6.788;2023-03-21T16:16:53;4.90;;;2.90;;
9214;SDS011;4642;51.364;6.788;2023-03-21T16:19:20;3.23;;;2.70;;
9214;SDS011;4642;51.364;6.788;2023-03-21T16:21:47;5.03;;;2.40;;
9214;SDS011;4642;51.364;6.788;2023-03-21T16:24:12;5.50;;;3.00;;
9214;SDS011;4642;51.364;6.788;2023-03-21T16:26:40;5.60;;;3.10;;
9214;SDS011;4642;51.364;6.788;2023-03-21T16:29:11;7.90;;;3.40;;
9214;SDS011;4642;51.364;6.788;2023-03-21T16:31:41;7.53;;;3.00;;
9214;SDS011;4642;51.364;6.788;2023-03-21T16:34:07;6.90;;;2.77;;
9214;SDS011;4642;51.364;6.788;2023-03-21T16:36:36;10.50;;;3.00;;
9214;SDS011;4642;51.364;6.788;2023-03-21T16:39:37;5.93;;;3.07;;
9214;SDS011;4642;51.364;6.788;2023-03-21T16:41:56;6.00;;;3.27;;
9214;SDS011;4642;51.364;6.788;2023-03-21T16:44:22;6.17;;;3.37;;
9214;SDS011;4642;51.364;6.788;2023-03-21T16:46:47;6.03;;;3.30;;
9214;SDS011;4642;51.364;6.788;2023-03-21T16:49:19;5.80;;;3.47;;
9214;SDS011;4642;51.364;6.788;2023-03-21T16:51:48;5.60;;;3.33;;
9214;SDS011;4642;51.364;6.788;2023-03-21T16:54:14;5.60;;;2.70;;
9214;SDS011;4642;51.364;6.788;2023-03-21T16:56:41;7.97;;;2.90;;
9214;SDS011;4642;51.364;6.788;2023-03-21T16:59:11;5.07;;;3.13;;
9214;SDS011;4642;51.364;6.788;2023-03-21T17:01:37;8.50;;;3.57;;
9214;SDS011;4642;51.364;6.788;2023-03-21T17:04:05;9.23;;;3.97;;
9214;SDS011;4642;51.364;6.788;2023-03-21T17:06:31;5.03;;;3.10;;
9214;SDS011;4642;51.364;6.788;2023-03-21T17:09:01;4.73;;;2.90;;
9214;SDS011;4642;51.364;6.788;2023-03-21T17:11:28;6.63;;;3.63;;